CKK226 KLAX-KSEA
Flight info
| Callsign | CKK226 |
|---|---|
| Flight time | 2h 3m |
| Altitude | 36000 |
| Route | LADYJ4 CSTRO SHIMR LKV HAWKZ8 |
| Aircraft | B77L/H-SDE1E2E3FGHIJ2J3J4J5M1RWXY/LB1D1 |
Departure
| Time | 2026-05-04 22:35 |
|---|---|
| Airport | Los Angeles International Airport (KLAX) |
Arrival
| Time | 2026-05-05 00:38 |
|---|---|
| Airport | Seattle–Tacoma International Airport (KSEA) |
| Time | Latitude | Longitude | Altitude | Speed | Heading |
|---|---|---|---|---|---|
| 2026-05-04 21:39 | 33.94311 | -118.38255 | 110 ft | 0 kts | 42° |
| 2026-05-04 22:17 | 33.94302 | -118.38265 | 109 ft | 2 kts | 42° |
| 2026-05-04 22:17 | 33.94291 | -118.38278 | 109 ft | 2 kts | 57° |
| 2026-05-04 22:17 | 33.94285 | -118.38294 | 109 ft | 2 kts | 76° |
| 2026-05-04 22:18 | 33.94281 | -118.38312 | 110 ft | 2 kts | 64° |
| 2026-05-04 22:18 | 33.94273 | -118.38326 | 110 ft | 2 kts | 42° |
| 2026-05-04 22:18 | 33.94261 | -118.38336 | 110 ft | 2 kts | 24° |
| 2026-05-04 22:18 | 33.94246 | -118.38341 | 110 ft | 2 kts | 5° |
| 2026-05-04 22:19 | 33.94231 | -118.38341 | 110 ft | 2 kts | 358° |
| 2026-05-04 22:19 | 33.94217 | -118.38341 | 111 ft | 2 kts | 0° |
| 2026-05-04 22:19 | 33.94202 | -118.38341 | 110 ft | 2 kts | 1° |
| 2026-05-04 22:19 | 33.94186 | -118.38341 | 110 ft | 2 kts | 0° |
| 2026-05-04 22:20 | 33.94172 | -118.38341 | 111 ft | 2 kts | 2° |
| 2026-05-04 22:20 | 33.94157 | -118.38344 | 111 ft | 2 kts | 19° |
| 2026-05-04 22:20 | 33.94143 | -118.38351 | 111 ft | 2 kts | 34° |
| 2026-05-04 22:20 | 33.94132 | -118.38363 | 111 ft | 2 kts | 48° |
| 2026-05-04 22:21 | 33.94123 | -118.38377 | 111 ft | 2 kts | 63° |
| 2026-05-04 22:21 | 33.94117 | -118.38393 | 111 ft | 2 kts | 77° |
| 2026-05-04 22:21 | 33.94115 | -118.38411 | 111 ft | 2 kts | 86° |
| 2026-05-04 22:21 | 33.94114 | -118.38428 | 111 ft | 0 kts | 84° |
| 2026-05-04 22:22 | 33.94114 | -118.38429 | 111 ft | 0 kts | 84° |
| 2026-05-04 22:28 | 33.94115 | -118.38413 | 110 ft | 3 kts | 84° |
| 2026-05-04 22:28 | 33.94115 | -118.38382 | 110 ft | 3 kts | 100° |
| 2026-05-04 22:29 | 33.94109 | -118.38369 | 110 ft | 1 kts | 133° |
| 2026-05-04 22:29 | 33.94092 | -118.38352 | 110 ft | 4 kts | 141° |
| 2026-05-04 22:29 | 33.94065 | -118.38318 | 110 ft | 6 kts | 121° |
| 2026-05-04 22:29 | 33.94058 | -118.38256 | 110 ft | 8 kts | 84° |
| 2026-05-04 22:30 | 33.94065 | -118.38188 | 110 ft | 8 kts | 84° |
| 2026-05-04 22:30 | 33.94072 | -118.38120 | 109 ft | 7 kts | 83° |
| 2026-05-04 22:30 | 33.94076 | -118.38079 | 109 ft | 3 kts | 83° |
| 2026-05-04 22:30 | 33.94076 | -118.38072 | 109 ft | 0 kts | 83° |
| 2026-05-04 22:32 | 33.94077 | -118.38062 | 109 ft | 3 kts | 86° |
| 2026-05-04 22:33 | 33.94073 | -118.38030 | 109 ft | 4 kts | 118° |
| 2026-05-04 22:33 | 33.94036 | -118.38007 | 109 ft | 5 kts | 175° |
| 2026-05-04 22:33 | 33.94000 | -118.38008 | 109 ft | 4 kts | 202° |
| 2026-05-04 22:33 | 33.93982 | -118.38047 | 109 ft | 7 kts | 261° |
| 2026-05-04 22:34 | 33.93973 | -118.38136 | 109 ft | 20 kts | 263° |
| 2026-05-04 22:34 | 33.93927 | -118.38584 | 112 ft | 88 kts | 263° |
| 2026-05-04 22:34 | 33.93825 | -118.39576 | 119 ft | 149 kts | 263° |
| 2026-05-04 22:34 | 33.93672 | -118.41017 | 306 ft | 186 kts | 261° |
| 2026-05-04 22:35 | 33.93493 | -118.42552 | 923 ft | 195 kts | 261° |
| 2026-05-04 22:35 | 33.93343 | -118.44129 | 1837 ft | 188 kts | 262° |
| 2026-05-04 22:35 | 33.93181 | -118.45725 | 2299 ft | 198 kts | 262° |
| 2026-05-04 22:35 | 33.93057 | -118.47435 | 2586 ft | 218 kts | 264° |
| 2026-05-04 22:36 | 33.92896 | -118.49337 | 2916 ft | 239 kts | 264° |
| 2026-05-04 22:36 | 33.92723 | -118.51395 | 3422 ft | 252 kts | 264° |
| 2026-05-04 22:36 | 33.92551 | -118.53482 | 4239 ft | 253 kts | 264° |
| 2026-05-04 22:36 | 33.92376 | -118.55598 | 4819 ft | 258 kts | 264° |
| 2026-05-04 22:37 | 33.92197 | -118.57758 | 5081 ft | 267 kts | 265° |
| 2026-05-04 22:37 | 33.92053 | -118.59953 | 6012 ft | 261 kts | 272° |
| 2026-05-04 22:37 | 33.92449 | -118.62042 | 6786 ft | 261 kts | 295° |
| 2026-05-04 22:37 | 33.93536 | -118.63790 | 7430 ft | 267 kts | 318° |
| 2026-05-04 22:38 | 33.95082 | -118.65004 | 8091 ft | 271 kts | 327° |
| 2026-05-04 22:38 | 33.96741 | -118.66090 | 8757 ft | 273 kts | 328° |
| 2026-05-04 22:38 | 33.98444 | -118.67154 | 9364 ft | 278 kts | 335° |
| 2026-05-04 22:38 | 34.00342 | -118.67598 | 9976 ft | 286 kts | 354° |
| 2026-05-04 22:39 | 34.02367 | -118.67555 | 10391 ft | 298 kts | 359° |
| 2026-05-04 22:39 | 34.04513 | -118.67418 | 10554 ft | 319 kts | 359° |
| 2026-05-04 22:39 | 34.06786 | -118.67265 | 10735 ft | 339 kts | 360° |
| 2026-05-04 22:39 | 34.09222 | -118.66875 | 10918 ft | 362 kts | 7° |
| 2026-05-04 22:40 | 34.11774 | -118.66273 | 11148 ft | 380 kts | 8° |
| 2026-05-04 22:40 | 34.14397 | -118.65643 | 11517 ft | 394 kts | 8° |
| 2026-05-04 22:40 | 34.17102 | -118.64996 | 12260 ft | 398 kts | 8° |
| 2026-05-04 22:40 | 34.19813 | -118.64349 | 13070 ft | 401 kts | 8° |
| 2026-05-04 22:41 | 34.22579 | -118.63740 | 13869 ft | 404 kts | 4° |
| 2026-05-04 22:41 | 34.25386 | -118.63627 | 14559 ft | 409 kts | 353° |
| 2026-05-04 22:41 | 34.28216 | -118.64097 | 15353 ft | 413 kts | 346° |
| 2026-05-04 22:41 | 34.31035 | -118.64739 | 16268 ft | 416 kts | 345° |
| 2026-05-04 22:42 | 34.33899 | -118.65399 | 17121 ft | 421 kts | 345° |
| 2026-05-04 22:42 | 34.36825 | -118.66073 | 17832 ft | 429 kts | 344° |
| 2026-05-04 22:42 | 34.39772 | -118.66750 | 18614 ft | 435 kts | 344° |
| 2026-05-04 22:42 | 34.42744 | -118.67431 | 19481 ft | 437 kts | 344° |
| 2026-05-04 22:43 | 34.45741 | -118.68057 | 20161 ft | 446 kts | 345° |
| 2026-05-04 22:43 | 34.48821 | -118.68650 | 20898 ft | 451 kts | 345° |
| 2026-05-04 22:43 | 34.51965 | -118.69255 | 21680 ft | 455 kts | 344° |
| 2026-05-04 22:43 | 34.55081 | -118.69858 | 22372 ft | 460 kts | 344° |
| 2026-05-04 22:44 | 34.58271 | -118.70477 | 23028 ft | 465 kts | 343° |
| 2026-05-04 22:44 | 34.61454 | -118.71098 | 23606 ft | 471 kts | 343° |
| 2026-05-04 22:44 | 34.64717 | -118.71735 | 24161 ft | 477 kts | 343° |
| 2026-05-04 22:44 | 34.68039 | -118.72387 | 24626 ft | 485 kts | 342° |
| 2026-05-04 22:45 | 34.71291 | -118.73325 | 25099 ft | 481 kts | 333° |
| 2026-05-04 22:45 | 34.77310 | -118.76803 | 26025 ft | 481 kts | 321° |
| 2026-05-04 22:45 | 34.80216 | -118.78796 | 26674 ft | 483 kts | 321° |
| 2026-05-04 22:46 | 34.83126 | -118.80796 | 27384 ft | 484 kts | 320° |
| 2026-05-04 22:46 | 34.86086 | -118.82833 | 27953 ft | 489 kts | 319° |
| 2026-05-04 22:46 | 34.89043 | -118.84874 | 28337 ft | 499 kts | 319° |
| 2026-05-04 22:46 | 34.92096 | -118.86980 | 28784 ft | 506 kts | 319° |
| 2026-05-04 22:47 | 34.95179 | -118.89104 | 29458 ft | 508 kts | 319° |
| 2026-05-04 22:47 | 34.98242 | -118.91212 | 30198 ft | 507 kts | 319° |
| 2026-05-04 22:47 | 35.01276 | -118.93304 | 30864 ft | 507 kts | 319° |
| 2026-05-04 22:47 | 35.04351 | -118.95429 | 31375 ft | 511 kts | 319° |
| 2026-05-04 22:48 | 35.07455 | -118.97572 | 32045 ft | 509 kts | 319° |
| 2026-05-04 22:48 | 35.10510 | -118.99683 | 32690 ft | 508 kts | 319° |
| 2026-05-04 22:48 | 35.13608 | -119.01829 | 33112 ft | 511 kts | 319° |
| 2026-05-04 22:48 | 35.16703 | -119.03978 | 33416 ft | 517 kts | 320° |
| 2026-05-04 22:49 | 35.19852 | -119.06164 | 33908 ft | 519 kts | 320° |
| 2026-05-04 22:49 | 35.22991 | -119.08339 | 34707 ft | 514 kts | 320° |
| 2026-05-04 22:49 | 35.26088 | -119.10487 | 35550 ft | 509 kts | 321° |
| 2026-05-04 22:49 | 35.29208 | -119.12655 | 35943 ft | 507 kts | 321° |
| 2026-05-04 22:50 | 35.35384 | -119.16955 | 35973 ft | 504 kts | 321° |
| 2026-05-04 22:50 | 35.41537 | -119.21248 | 35972 ft | 501 kts | 322° |
| 2026-05-04 22:51 | 35.44684 | -119.23152 | 35976 ft | 513 kts | 330° |
| 2026-05-04 22:51 | 35.48125 | -119.24543 | 35970 ft | 519 kts | 338° |
| 2026-05-04 22:51 | 35.55213 | -119.26676 | 35979 ft | 525 kts | 339° |
| 2026-05-04 22:52 | 35.62268 | -119.28767 | 35985 ft | 523 kts | 339° |
| 2026-05-04 22:52 | 35.69328 | -119.30872 | 35991 ft | 523 kts | 339° |
| 2026-05-04 22:53 | 35.76418 | -119.32994 | 35992 ft | 524 kts | 339° |
| 2026-05-04 22:53 | 35.83478 | -119.35114 | 35986 ft | 523 kts | 339° |
| 2026-05-04 22:54 | 35.90516 | -119.37231 | 35991 ft | 520 kts | 339° |
| 2026-05-04 22:54 | 35.97597 | -119.39368 | 35987 ft | 523 kts | 339° |
| 2026-05-04 22:55 | 36.04667 | -119.41505 | 35992 ft | 521 kts | 339° |
| 2026-05-04 22:55 | 36.11725 | -119.43642 | 35979 ft | 521 kts | 340° |
| 2026-05-04 22:56 | 36.18756 | -119.45776 | 35990 ft | 524 kts | 340° |
| 2026-05-04 22:56 | 36.25856 | -119.47933 | 35996 ft | 519 kts | 340° |
| 2026-05-04 22:57 | 36.32892 | -119.50078 | 35998 ft | 524 kts | 340° |
| 2026-05-04 22:57 | 36.39904 | -119.52215 | 35997 ft | 518 kts | 340° |
| 2026-05-04 22:58 | 36.46916 | -119.54360 | 35991 ft | 520 kts | 340° |
| 2026-05-04 22:58 | 36.53937 | -119.56509 | 35983 ft | 518 kts | 340° |
| 2026-05-04 22:59 | 36.60931 | -119.58656 | 35987 ft | 519 kts | 340° |
| 2026-05-04 22:59 | 36.67919 | -119.60805 | 35996 ft | 519 kts | 340° |
| 2026-05-04 23:00 | 36.74956 | -119.62965 | 36000 ft | 518 kts | 341° |
| 2026-05-04 23:00 | 36.81936 | -119.65120 | 36002 ft | 515 kts | 340° |
| 2026-05-04 23:01 | 36.88882 | -119.67271 | 36012 ft | 518 kts | 340° |
| 2026-05-04 23:01 | 36.95545 | -119.69334 | 36007 ft | 513 kts | 341° |
| 2026-05-04 23:02 | 37.02512 | -119.71498 | 36002 ft | 516 kts | 341° |
| 2026-05-04 23:02 | 37.09481 | -119.73665 | 35999 ft | 515 kts | 341° |
| 2026-05-04 23:03 | 37.16428 | -119.75827 | 35983 ft | 512 kts | 341° |
| 2026-05-04 23:03 | 37.23326 | -119.77982 | 35986 ft | 514 kts | 341° |
| 2026-05-04 23:04 | 37.30262 | -119.80149 | 35986 ft | 511 kts | 342° |
| 2026-05-04 23:04 | 37.37190 | -119.82320 | 36001 ft | 513 kts | 342° |
| 2026-05-04 23:05 | 37.44086 | -119.84484 | 36000 ft | 511 kts | 342° |
| 2026-05-04 23:05 | 37.50995 | -119.86657 | 36003 ft | 511 kts | 342° |
| 2026-05-04 23:06 | 37.57891 | -119.88829 | 35998 ft | 512 kts | 343° |
| 2026-05-04 23:06 | 37.64794 | -119.91008 | 36001 ft | 510 kts | 343° |
| 2026-05-04 23:07 | 37.71688 | -119.93188 | 36003 ft | 509 kts | 343° |
| 2026-05-04 23:07 | 37.78512 | -119.95350 | 36004 ft | 505 kts | 343° |
| 2026-05-04 23:08 | 37.85350 | -119.97521 | 36003 ft | 506 kts | 343° |
| 2026-05-04 23:08 | 37.92162 | -119.99687 | 35913 ft | 500 kts | 344° |
| 2026-05-04 23:09 | 37.98986 | -120.01862 | 36010 ft | 505 kts | 343° |
| 2026-05-04 23:09 | 38.05803 | -120.04039 | 35991 ft | 502 kts | 344° |
| 2026-05-04 23:10 | 38.12550 | -120.06197 | 36023 ft | 503 kts | 344° |
| 2026-05-04 23:10 | 38.19313 | -120.08366 | 35976 ft | 503 kts | 345° |
| 2026-05-04 23:11 | 38.26220 | -120.09936 | 35980 ft | 505 kts | 355° |
| 2026-05-04 23:11 | 38.33205 | -120.10571 | 35976 ft | 505 kts | 355° |
| 2026-05-04 23:12 | 38.40216 | -120.11196 | 35969 ft | 503 kts | 355° |
| 2026-05-04 23:12 | 38.47182 | -120.11825 | 35962 ft | 501 kts | 356° |
| 2026-05-04 23:13 | 38.54147 | -120.12457 | 35965 ft | 500 kts | 356° |
| 2026-05-04 23:13 | 38.57606 | -120.12772 | 36207 ft | 500 kts | 356° |
| 2026-05-04 23:13 | 38.61078 | -120.13088 | 35731 ft | 498 kts | 356° |
| 2026-05-04 23:14 | 38.64486 | -120.13399 | 35897 ft | 491 kts | 356° |
| 2026-05-04 23:14 | 38.67931 | -120.13715 | 36195 ft | 499 kts | 356° |
| 2026-05-04 23:14 | 38.71405 | -120.14033 | 36001 ft | 499 kts | 356° |
| 2026-05-04 23:14 | 38.74821 | -120.14347 | 35974 ft | 490 kts | 357° |
| 2026-05-04 23:15 | 38.81656 | -120.14975 | 35981 ft | 493 kts | 357° |
| 2026-05-04 23:15 | 38.88423 | -120.15598 | 35988 ft | 490 kts | 357° |
| 2026-05-04 23:16 | 38.95245 | -120.16228 | 35989 ft | 488 kts | 357° |
| 2026-05-04 23:16 | 39.01949 | -120.16848 | 35982 ft | 483 kts | 357° |
| 2026-05-04 23:17 | 39.08649 | -120.17469 | 35989 ft | 482 kts | 358° |
| 2026-05-04 23:17 | 39.15351 | -120.18091 | 35955 ft | 483 kts | 357° |
| 2026-05-04 23:18 | 39.22046 | -120.18713 | 35971 ft | 483 kts | 358° |
| 2026-05-04 23:18 | 39.28735 | -120.19337 | 35997 ft | 482 kts | 358° |
| 2026-05-04 23:19 | 39.35410 | -120.19961 | 35998 ft | 480 kts | 359° |
| 2026-05-04 23:19 | 39.42056 | -120.20582 | 36002 ft | 480 kts | 359° |
| 2026-05-04 23:20 | 39.48692 | -120.21204 | 35968 ft | 476 kts | 359° |
| 2026-05-04 23:20 | 39.55299 | -120.21825 | 35975 ft | 475 kts | 359° |
| 2026-05-04 23:21 | 39.61876 | -120.22444 | 35973 ft | 471 kts | 359° |
| 2026-05-04 23:21 | 39.68388 | -120.23058 | 35945 ft | 469 kts | 359° |
| 2026-05-04 23:22 | 39.74898 | -120.23673 | 35959 ft | 469 kts | 359° |
| 2026-05-04 23:22 | 39.81395 | -120.24287 | 35923 ft | 465 kts | 360° |
| 2026-05-04 23:23 | 39.87833 | -120.24897 | 35927 ft | 467 kts | 360° |
| 2026-05-04 23:23 | 39.94286 | -120.25510 | 35957 ft | 466 kts | 360° |
| 2026-05-04 23:24 | 40.00761 | -120.26127 | 35915 ft | 463 kts | 360° |
| 2026-05-04 23:24 | 40.07174 | -120.26738 | 35922 ft | 461 kts | 360° |
| 2026-05-04 23:25 | 40.13579 | -120.27349 | 35781 ft | 463 kts | 360° |
| 2026-05-04 23:25 | 40.16814 | -120.27657 | 35911 ft | 467 kts | 360° |
| 2026-05-04 23:25 | 40.20041 | -120.27966 | 35921 ft | 467 kts | 359° |
| 2026-05-04 23:26 | 40.26473 | -120.28584 | 35913 ft | 463 kts | 360° |
| 2026-05-04 23:26 | 40.32886 | -120.29200 | 35914 ft | 464 kts | 360° |
| 2026-05-04 23:27 | 40.39355 | -120.29823 | 35936 ft | 465 kts | 360° |
| 2026-05-04 23:27 | 40.45766 | -120.30442 | 35910 ft | 460 kts | 0° |
| 2026-05-04 23:28 | 40.52204 | -120.31062 | 35934 ft | 464 kts | 360° |
| 2026-05-04 23:28 | 40.58570 | -120.31680 | 35945 ft | 459 kts | 0° |
| 2026-05-04 23:29 | 40.65014 | -120.32304 | 35950 ft | 463 kts | 0° |
| 2026-05-04 23:29 | 40.71410 | -120.32927 | 35961 ft | 460 kts | 0° |
| 2026-05-04 23:30 | 40.77805 | -120.33548 | 35966 ft | 463 kts | 0° |
| 2026-05-04 23:30 | 40.84175 | -120.34171 | 35965 ft | 458 kts | 0° |
| 2026-05-04 23:31 | 40.90558 | -120.34795 | 35965 ft | 460 kts | 1° |
| 2026-05-04 23:31 | 40.96947 | -120.35420 | 35969 ft | 459 kts | 0° |
| 2026-05-04 23:32 | 41.03265 | -120.36041 | 35965 ft | 457 kts | 1° |
| 2026-05-04 23:32 | 41.09629 | -120.36665 | 35980 ft | 458 kts | 0° |
| 2026-05-04 23:33 | 41.16023 | -120.37296 | 35983 ft | 458 kts | 1° |
| 2026-05-04 23:33 | 41.22313 | -120.37917 | 35985 ft | 456 kts | 1° |
| 2026-05-04 23:34 | 41.28612 | -120.38539 | 35978 ft | 455 kts | 1° |
| 2026-05-04 23:34 | 41.34914 | -120.39164 | 35958 ft | 453 kts | 1° |
| 2026-05-04 23:35 | 41.41208 | -120.39788 | 35956 ft | 454 kts | 1° |
| 2026-05-04 23:35 | 41.47512 | -120.40415 | 35949 ft | 454 kts | 1° |
| 2026-05-04 23:36 | 41.53805 | -120.41042 | 35953 ft | 451 kts | 1° |
| 2026-05-04 23:36 | 41.60039 | -120.41664 | 35957 ft | 454 kts | 1° |
| 2026-05-04 23:37 | 41.66339 | -120.42296 | 35958 ft | 450 kts | 1° |
| 2026-05-04 23:37 | 41.72549 | -120.42918 | 35967 ft | 450 kts | 1° |
| 2026-05-04 23:38 | 41.78807 | -120.43546 | 35966 ft | 451 kts | 1° |
| 2026-05-04 23:38 | 41.85041 | -120.44174 | 35966 ft | 449 kts | 2° |
| 2026-05-04 23:39 | 41.91255 | -120.44800 | 35966 ft | 450 kts | 2° |
| 2026-05-04 23:39 | 41.97472 | -120.45429 | 35958 ft | 447 kts | 2° |
| 2026-05-04 23:40 | 42.03702 | -120.46058 | 35951 ft | 450 kts | 2° |
| 2026-05-04 23:40 | 42.09884 | -120.46686 | 35948 ft | 447 kts | 2° |
| 2026-05-04 23:41 | 42.16101 | -120.47317 | 35961 ft | 446 kts | 2° |
| 2026-05-04 23:41 | 42.19205 | -120.47634 | 36278 ft | 445 kts | 2° |
| 2026-05-04 23:41 | 42.22277 | -120.47946 | 36022 ft | 446 kts | 2° |
| 2026-05-04 23:42 | 42.28435 | -120.48575 | 35982 ft | 445 kts | 2° |
| 2026-05-04 23:42 | 42.34605 | -120.49205 | 35992 ft | 445 kts | 2° |
| 2026-05-04 23:43 | 42.40760 | -120.49835 | 36005 ft | 445 kts | 2° |
| 2026-05-04 23:43 | 42.46906 | -120.50515 | 36003 ft | 447 kts | 358° |
| 2026-05-04 23:44 | 42.52925 | -120.52913 | 36015 ft | 461 kts | 343° |
| 2026-05-04 23:44 | 42.58766 | -120.56427 | 36004 ft | 462 kts | 343° |
| 2026-05-04 23:45 | 42.64641 | -120.59989 | 35995 ft | 460 kts | 343° |
| 2026-05-04 23:45 | 42.70480 | -120.63534 | 35979 ft | 461 kts | 343° |
| 2026-05-04 23:46 | 42.76311 | -120.67081 | 35952 ft | 462 kts | 342° |
| 2026-05-04 23:46 | 42.82196 | -120.70667 | 35949 ft | 460 kts | 342° |
| 2026-05-04 23:47 | 42.87997 | -120.74210 | 35953 ft | 460 kts | 342° |
| 2026-05-04 23:47 | 42.93842 | -120.77786 | 35955 ft | 459 kts | 342° |
| 2026-05-04 23:48 | 42.99654 | -120.81348 | 35969 ft | 461 kts | 342° |
| 2026-05-04 23:48 | 43.05463 | -120.84920 | 35977 ft | 457 kts | 342° |
| 2026-05-04 23:49 | 43.11287 | -120.88503 | 35980 ft | 460 kts | 342° |
| 2026-05-04 23:49 | 43.17074 | -120.92075 | 35980 ft | 458 kts | 342° |
| 2026-05-04 23:50 | 43.22912 | -120.95685 | 35978 ft | 456 kts | 342° |
| 2026-05-04 23:50 | 43.28692 | -120.99264 | 35988 ft | 458 kts | 342° |
| 2026-05-04 23:51 | 43.34500 | -121.02870 | 35994 ft | 458 kts | 342° |
| 2026-05-04 23:51 | 43.40244 | -121.06446 | 35997 ft | 455 kts | 342° |
| 2026-05-04 23:52 | 43.45994 | -121.10030 | 35999 ft | 454 kts | 342° |
| 2026-05-04 23:52 | 43.51766 | -121.13636 | 36009 ft | 455 kts | 342° |
| 2026-05-04 23:53 | 43.57484 | -121.17217 | 36015 ft | 453 kts | 342° |
| 2026-05-04 23:53 | 43.63218 | -121.20813 | 36025 ft | 455 kts | 342° |
| 2026-05-04 23:54 | 43.68962 | -121.24425 | 36025 ft | 453 kts | 342° |
| 2026-05-04 23:54 | 43.74689 | -121.28033 | 36032 ft | 453 kts | 342° |
| 2026-05-04 23:55 | 43.80430 | -121.31657 | 36012 ft | 452 kts | 342° |
| 2026-05-04 23:56 | 43.88995 | -121.37080 | 35997 ft | 451 kts | 342° |
| 2026-05-04 23:56 | 43.94708 | -121.40707 | 35988 ft | 451 kts | 342° |
| 2026-05-04 23:57 | 44.00407 | -121.44332 | 35981 ft | 452 kts | 342° |
| 2026-05-04 23:57 | 44.06096 | -121.47960 | 35987 ft | 449 kts | 342° |
| 2026-05-04 23:58 | 44.11808 | -121.51608 | 35985 ft | 451 kts | 342° |
| 2026-05-04 23:58 | 44.17503 | -121.55255 | 35983 ft | 448 kts | 341° |
| 2026-05-04 23:59 | 44.23169 | -121.58890 | 35993 ft | 449 kts | 341° |
| 2026-05-04 23:59 | 44.28823 | -121.62525 | 35996 ft | 448 kts | 342° |
| 2026-05-05 00:00 | 44.34492 | -121.66177 | 35998 ft | 449 kts | 341° |
| 2026-05-05 00:00 | 44.40193 | -121.69859 | 36005 ft | 449 kts | 341° |
| 2026-05-05 00:01 | 44.45829 | -121.73505 | 36014 ft | 450 kts | 341° |
| 2026-05-05 00:01 | 44.51511 | -121.77191 | 36003 ft | 447 kts | 341° |
| 2026-05-05 00:02 | 44.57119 | -121.80836 | 36012 ft | 448 kts | 341° |
| 2026-05-05 00:02 | 44.62776 | -121.84520 | 36003 ft | 447 kts | 341° |
| 2026-05-05 00:03 | 44.68391 | -121.88185 | 36008 ft | 446 kts | 341° |
| 2026-05-05 00:03 | 44.74016 | -121.91863 | 36001 ft | 447 kts | 341° |
| 2026-05-05 00:04 | 44.79653 | -121.95559 | 36002 ft | 446 kts | 341° |
| 2026-05-05 00:04 | 44.85254 | -121.99239 | 36001 ft | 446 kts | 341° |
| 2026-05-05 00:05 | 44.90855 | -122.02926 | 35997 ft | 445 kts | 341° |
| 2026-05-05 00:05 | 44.96418 | -122.06595 | 35988 ft | 445 kts | 341° |
| 2026-05-05 00:06 | 45.02013 | -122.10295 | 35985 ft | 444 kts | 341° |
| 2026-05-05 00:06 | 45.07586 | -122.13988 | 35982 ft | 443 kts | 341° |
| 2026-05-05 00:07 | 45.13186 | -122.17705 | 35986 ft | 445 kts | 341° |
| 2026-05-05 00:07 | 45.18775 | -122.21426 | 35965 ft | 443 kts | 341° |
| 2026-05-05 00:08 | 45.24379 | -122.25163 | 35933 ft | 443 kts | 341° |
| 2026-05-05 00:08 | 45.29946 | -122.28885 | 35923 ft | 443 kts | 341° |
| 2026-05-05 00:09 | 45.35501 | -122.32606 | 35911 ft | 442 kts | 341° |
| 2026-05-05 00:09 | 45.41065 | -122.36340 | 35906 ft | 444 kts | 341° |
| 2026-05-05 00:10 | 45.46634 | -122.40087 | 35901 ft | 444 kts | 341° |
| 2026-05-05 00:10 | 45.52200 | -122.43842 | 35897 ft | 443 kts | 340° |
| 2026-05-05 00:11 | 45.57753 | -122.47594 | 35902 ft | 443 kts | 341° |
| 2026-05-05 00:11 | 45.63327 | -122.51369 | 35888 ft | 444 kts | 340° |
| 2026-05-05 00:12 | 45.68879 | -122.55138 | 35892 ft | 443 kts | 340° |
| 2026-05-05 00:12 | 45.74497 | -122.58740 | 35895 ft | 440 kts | 347° |
| 2026-05-05 00:13 | 45.80373 | -122.60555 | 35848 ft | 428 kts | 355° |
| 2026-05-05 00:13 | 45.83281 | -122.61269 | 35191 ft | 429 kts | 355° |
| 2026-05-05 00:13 | 45.86237 | -122.61995 | 34300 ft | 431 kts | 355° |
| 2026-05-05 00:13 | 45.89157 | -122.62714 | 33640 ft | 430 kts | 354° |
| 2026-05-05 00:14 | 45.92119 | -122.63446 | 32953 ft | 429 kts | 354° |
| 2026-05-05 00:14 | 45.95062 | -122.64172 | 32185 ft | 445 kts | 354° |
| 2026-05-05 00:14 | 45.98159 | -122.64936 | 30988 ft | 459 kts | 353° |
| 2026-05-05 00:14 | 46.01308 | -122.65719 | 30263 ft | 458 kts | 352° |
| 2026-05-05 00:15 | 46.04423 | -122.66496 | 29810 ft | 450 kts | 352° |
| 2026-05-05 00:15 | 46.07485 | -122.67261 | 29340 ft | 445 kts | 352° |
| 2026-05-05 00:15 | 46.10519 | -122.68011 | 28830 ft | 442 kts | 353° |
| 2026-05-05 00:15 | 46.13577 | -122.68627 | 28324 ft | 441 kts | 354° |
| 2026-05-05 00:16 | 46.16506 | -122.69190 | 27818 ft | 440 kts | 354° |
| 2026-05-05 00:16 | 46.19546 | -122.69779 | 27275 ft | 437 kts | 354° |
| 2026-05-05 00:16 | 46.22530 | -122.70361 | 26741 ft | 433 kts | 354° |
| 2026-05-05 00:16 | 46.25459 | -122.70935 | 26216 ft | 429 kts | 354° |
| 2026-05-05 00:17 | 46.28419 | -122.71518 | 25668 ft | 426 kts | 354° |
| 2026-05-05 00:17 | 46.31307 | -122.72082 | 25129 ft | 422 kts | 355° |
| 2026-05-05 00:17 | 46.34243 | -122.72321 | 24582 ft | 418 kts | 359° |
| 2026-05-05 00:17 | 46.37123 | -122.72424 | 24003 ft | 416 kts | 359° |
| 2026-05-05 00:18 | 46.40012 | -122.72522 | 23441 ft | 412 kts | 359° |
| 2026-05-05 00:18 | 46.42829 | -122.72619 | 22914 ft | 408 kts | 359° |
| 2026-05-05 00:18 | 46.45650 | -122.72717 | 22376 ft | 405 kts | 359° |
| 2026-05-05 00:18 | 46.48463 | -122.72817 | 21838 ft | 402 kts | 359° |
| 2026-05-05 00:19 | 46.51252 | -122.72916 | 21307 ft | 400 kts | 359° |
| 2026-05-05 00:19 | 46.54025 | -122.73014 | 20781 ft | 398 kts | 359° |
| 2026-05-05 00:19 | 46.56734 | -122.73111 | 20244 ft | 394 kts | 359° |
| 2026-05-05 00:19 | 46.59483 | -122.73210 | 19707 ft | 391 kts | 359° |
| 2026-05-05 00:20 | 46.62190 | -122.73308 | 19180 ft | 388 kts | 359° |
| 2026-05-05 00:20 | 46.64878 | -122.73405 | 18657 ft | 386 kts | 359° |
| 2026-05-05 00:20 | 46.67526 | -122.73500 | 18148 ft | 382 kts | 359° |
| 2026-05-05 00:20 | 46.70141 | -122.73595 | 17937 ft | 370 kts | 359° |
| 2026-05-05 00:21 | 46.72670 | -122.73687 | 17854 ft | 355 kts | 359° |
| 2026-05-05 00:21 | 46.75089 | -122.73776 | 17732 ft | 342 kts | 359° |
| 2026-05-05 00:21 | 46.77392 | -122.73454 | 17588 ft | 329 kts | 16° |
| 2026-05-05 00:21 | 46.79446 | -122.72118 | 17385 ft | 320 kts | 29° |
| 2026-05-05 00:22 | 46.81299 | -122.70335 | 16961 ft | 320 kts | 33° |
| 2026-05-05 00:22 | 46.83078 | -122.68382 | 16551 ft | 319 kts | 36° |
| 2026-05-05 00:22 | 46.84784 | -122.66407 | 16144 ft | 317 kts | 36° |
| 2026-05-05 00:22 | 46.86536 | -122.64417 | 15740 ft | 315 kts | 35° |
| 2026-05-05 00:23 | 46.88256 | -122.62478 | 15310 ft | 314 kts | 36° |
| 2026-05-05 00:23 | 46.89969 | -122.60538 | 14917 ft | 311 kts | 36° |
| 2026-05-05 00:23 | 46.91676 | -122.58595 | 14621 ft | 305 kts | 36° |
| 2026-05-05 00:23 | 46.93322 | -122.56788 | 14527 ft | 292 kts | 28° |
| 2026-05-05 00:24 | 46.95140 | -122.55646 | 14373 ft | 281 kts | 18° |
| 2026-05-05 00:24 | 46.96996 | -122.54791 | 13971 ft | 281 kts | 15° |
| 2026-05-05 00:24 | 46.98881 | -122.53971 | 13572 ft | 281 kts | 15° |
| 2026-05-05 00:24 | 47.00742 | -122.53164 | 13201 ft | 279 kts | 16° |
| 2026-05-05 00:25 | 47.02597 | -122.52355 | 12845 ft | 278 kts | 16° |
| 2026-05-05 00:25 | 47.04436 | -122.51552 | 12495 ft | 276 kts | 16° |
| 2026-05-05 00:25 | 47.06270 | -122.50750 | 12149 ft | 275 kts | 16° |
| 2026-05-05 00:25 | 47.08107 | -122.50031 | 11796 ft | 273 kts | 9° |
| 2026-05-05 00:26 | 47.09983 | -122.49641 | 11456 ft | 272 kts | 7° |
| 2026-05-05 00:26 | 47.11872 | -122.49306 | 11116 ft | 271 kts | 7° |
| 2026-05-05 00:26 | 47.13733 | -122.48973 | 10773 ft | 270 kts | 7° |
| 2026-05-05 00:26 | 47.15590 | -122.48636 | 10437 ft | 269 kts | 7° |
| 2026-05-05 00:27 | 47.17431 | -122.48299 | 10102 ft | 267 kts | 7° |
| 2026-05-05 00:27 | 47.19253 | -122.47965 | 9987 ft | 260 kts | 7° |
| 2026-05-05 00:27 | 47.21080 | -122.47678 | 9786 ft | 266 kts | 6° |
| 2026-05-05 00:27 | 47.22919 | -122.47407 | 9510 ft | 264 kts | 6° |
| 2026-05-05 00:28 | 47.24712 | -122.47139 | 9273 ft | 261 kts | 6° |
| 2026-05-05 00:28 | 47.26537 | -122.46861 | 9050 ft | 262 kts | 6° |
| 2026-05-05 00:28 | 47.28345 | -122.46585 | 8826 ft | 263 kts | 6° |
| 2026-05-05 00:28 | 47.30160 | -122.46307 | 8600 ft | 261 kts | 6° |
| 2026-05-05 00:29 | 47.31942 | -122.46035 | 8375 ft | 256 kts | 6° |
| 2026-05-05 00:29 | 47.33702 | -122.45765 | 8158 ft | 251 kts | 6° |
| 2026-05-05 00:29 | 47.35437 | -122.45542 | 7946 ft | 248 kts | 1° |
| 2026-05-05 00:29 | 47.37153 | -122.45517 | 7666 ft | 250 kts | 360° |
| 2026-05-05 00:30 | 47.38901 | -122.45525 | 7333 ft | 251 kts | 359° |
| 2026-05-05 00:30 | 47.40636 | -122.45530 | 7019 ft | 250 kts | 359° |
| 2026-05-05 00:30 | 47.42353 | -122.45532 | 6777 ft | 246 kts | 359° |
| 2026-05-05 00:30 | 47.44069 | -122.45533 | 6657 ft | 245 kts | 359° |
| 2026-05-05 00:31 | 47.45771 | -122.45534 | 6494 ft | 245 kts | 359° |
| 2026-05-05 00:31 | 47.47430 | -122.45534 | 6338 ft | 236 kts | 359° |
| 2026-05-05 00:31 | 47.49041 | -122.45535 | 6172 ft | 228 kts | 359° |
| 2026-05-05 00:31 | 47.50608 | -122.45536 | 6016 ft | 219 kts | 359° |
| 2026-05-05 00:32 | 47.52103 | -122.45534 | 5836 ft | 213 kts | 359° |
| 2026-05-05 00:32 | 47.53577 | -122.45523 | 5545 ft | 210 kts | 359° |
| 2026-05-05 00:32 | 47.55020 | -122.45514 | 5259 ft | 205 kts | 359° |
| 2026-05-05 00:32 | 47.56421 | -122.45502 | 4995 ft | 200 kts | 1° |
| 2026-05-05 00:33 | 47.57782 | -122.45197 | 4740 ft | 196 kts | 16° |
| 2026-05-05 00:33 | 47.58976 | -122.44327 | 4491 ft | 193 kts | 33° |
| 2026-05-05 00:33 | 47.59945 | -122.42981 | 4246 ft | 189 kts | 49° |
| 2026-05-05 00:33 | 47.60612 | -122.41325 | 4007 ft | 187 kts | 65° |
| 2026-05-05 00:34 | 47.60946 | -122.39490 | 3771 ft | 183 kts | 81° |
| 2026-05-05 00:34 | 47.60949 | -122.37624 | 3533 ft | 180 kts | 97° |
| 2026-05-05 00:34 | 47.60597 | -122.35857 | 3310 ft | 180 kts | 112° |
| 2026-05-05 00:34 | 47.59956 | -122.34250 | 3078 ft | 180 kts | 129° |
| 2026-05-05 00:35 | 47.59044 | -122.33000 | 2850 ft | 181 kts | 145° |
| 2026-05-05 00:35 | 47.57946 | -122.32127 | 2621 ft | 176 kts | 160° |
| 2026-05-05 00:35 | 47.56778 | -122.31723 | 2402 ft | 174 kts | 176° |
| 2026-05-05 00:35 | 47.55567 | -122.31688 | 2173 ft | 172 kts | 182° |
| 2026-05-05 00:36 | 47.54413 | -122.31714 | 1968 ft | 164 kts | 182° |
| 2026-05-05 00:36 | 47.53277 | -122.31727 | 1760 ft | 161 kts | 181° |
| 2026-05-05 00:36 | 47.52166 | -122.31739 | 1529 ft | 160 kts | 181° |
| 2026-05-05 00:36 | 47.51016 | -122.31742 | 1338 ft | 168 kts | 181° |
| 2026-05-05 00:37 | 47.49886 | -122.31752 | 1144 ft | 159 kts | 181° |
| 2026-05-05 00:37 | 47.48783 | -122.31766 | 954 ft | 156 kts | 181° |
| 2026-05-05 00:37 | 47.47711 | -122.31774 | 720 ft | 153 kts | 182° |
| 2026-05-05 00:37 | 47.46668 | -122.31783 | 505 ft | 151 kts | 182° |
| 2026-05-05 00:38 | 47.45657 | -122.31793 | 433 ft | 128 kts | 180° |
| 2026-05-05 00:38 | 47.44915 | -122.31800 | 433 ft | 84 kts | 180° |
| 2026-05-05 00:38 | 47.44529 | -122.31802 | 433 ft | 24 kts | 178° |
| 2026-05-05 00:38 | 47.44384 | -122.31775 | 433 ft | 20 kts | 166° |
| 2026-05-05 00:39 | 47.44255 | -122.31705 | 433 ft | 18 kts | 153° |
| 2026-05-05 00:39 | 47.44146 | -122.31617 | 433 ft | 17 kts | 151° |
| 2026-05-05 00:39 | 47.44044 | -122.31532 | 433 ft | 16 kts | 150° |
| 2026-05-05 00:39 | 47.43950 | -122.31454 | 433 ft | 15 kts | 150° |